sensor_id;sensor_type;location;lat;lon;timestamp;pressure;altitude;pressure_sealevel;temperature;humidity
46534;BME280;32260;52.008;4.752;2023-12-04T00:02:06;101305.31;;;3.61;70.46
46534;BME280;32260;52.008;4.752;2023-12-04T00:04:32;101300.06;;;3.61;70.59
46534;BME280;32260;52.008;4.752;2023-12-04T00:06:58;101307.91;;;3.59;69.93
46534;BME280;32260;52.008;4.752;2023-12-04T00:09:24;101299.16;;;3.59;70.29
46534;BME280;32260;52.008;4.752;2023-12-04T00:11:51;101291.34;;;3.60;70.16
46534;BME280;32260;52.008;4.752;2023-12-04T00:14:17;101294.00;;;3.63;70.05
46534;BME280;32260;52.008;4.752;2023-12-04T00:16:44;101292.34;;;3.70;69.95
46534;BME280;32260;52.008;4.752;2023-12-04T00:19:10;101293.16;;;3.67;69.94
46534;BME280;32260;52.008;4.752;2023-12-04T00:21:36;101297.53;;;3.67;69.87
46534;BME280;32260;52.008;4.752;2023-12-04T00:24:03;101289.72;;;3.70;70.19
46534;BME280;32260;52.008;4.752;2023-12-04T00:26:29;101291.47;;;3.69;70.02
46534;BME280;32260;52.008;4.752;2023-12-04T00:28:55;101283.63;;;3.71;70.22
46534;BME280;32260;52.008;4.752;2023-12-04T00:31:21;101282.84;;;3.75;70.12
46534;BME280;32260;52.008;4.752;2023-12-04T00:33:47;101281.06;;;3.74;70.26
46534;BME280;32260;52.008;4.752;2023-12-04T00:36:14;101274.88;;;3.69;69.98
46534;BME280;32260;52.008;4.752;2023-12-04T00:38:40;101265.25;;;3.69;70.16
46534;BME280;32260;52.008;4.752;2023-12-04T00:41:07;101271.34;;;3.67;69.92
46534;BME280;32260;52.008;4.752;2023-12-04T00:43:33;101270.44;;;3.66;70.26
46534;BME280;32260;52.008;4.752;2023-12-04T00:45:59;101263.47;;;3.67;70.27
46534;BME280;32260;52.008;4.752;2023-12-04T00:48:25;101272.19;;;3.64;70.39
46534;BME280;32260;52.008;4.752;2023-12-04T00:50:52;101275.75;;;3.71;70.20
46534;BME280;32260;52.008;4.752;2023-12-04T00:53:18;101267.91;;;3.71;70.51
46534;BME280;32260;52.008;4.752;2023-12-04T00:55:44;101262.72;;;3.74;70.47
46534;BME280;32260;52.008;4.752;2023-12-04T00:58:10;101260.03;;;3.71;70.14
46534;BME280;32260;52.008;4.752;2023-12-04T01:00:37;101253.94;;;3.72;70.32
46534;BME280;32260;52.008;4.752;2023-12-04T01:03:03;101243.47;;;3.72;70.14
46534;BME280;32260;52.008;4.752;2023-12-04T01:05:29;101245.16;;;3.70;70.30
46534;BME280;32260;52.008;4.752;2023-12-04T01:07:55;101246.09;;;3.73;70.35
46534;BME280;32260;52.008;4.752;2023-12-04T01:10:21;101253.91;;;3.69;70.11
46534;BME280;32260;52.008;4.752;2023-12-04T01:12:48;101242.50;;;3.65;70.48
46534;BME280;32260;52.008;4.752;2023-12-04T01:15:14;101235.47;;;3.63;70.09
46534;BME280;32260;52.008;4.752;2023-12-04T01:17:41;101239.81;;;3.64;70.31
46534;BME280;32260;52.008;4.752;2023-12-04T01:20:07;101239.81;;;3.61;70.48
46534;BME280;32260;52.008;4.752;2023-12-04T01:22:33;101240.66;;;3.61;70.51
46534;BME280;32260;52.008;4.752;2023-12-04T01:25:00;101234.59;;;3.64;70.37
46534;BME280;32260;52.008;4.752;2023-12-04T01:27:26;101228.50;;;3.65;70.04
46534;BME280;32260;52.008;4.752;2023-12-04T01:29:52;101231.13;;;3.65;69.96
46534;BME280;32260;52.008;4.752;2023-12-04T01:32:18;101231.97;;;3.62;70.00
46534;BME280;32260;52.008;4.752;2023-12-04T01:34:44;101227.72;;;3.69;69.97
46534;BME280;32260;52.008;4.752;2023-12-04T01:37:11;101225.13;;;3.72;70.08
46534;BME280;32260;52.008;4.752;2023-12-04T01:39:37;101215.53;;;3.74;70.46
46534;BME280;32260;52.008;4.752;2023-12-04T01:42:04;101212.91;;;3.74;70.05
46534;BME280;32260;52.008;4.752;2023-12-04T01:44:30;101208.53;;;3.71;70.26
46534;BME280;32260;52.008;4.752;2023-12-04T01:46:56;101198.84;;;3.67;69.94
46534;BME280;32260;52.008;4.752;2023-12-04T01:49:22;101199.75;;;3.69;70.03
46534;BME280;32260;52.008;4.752;2023-12-04T01:51:50;101194.50;;;3.68;70.20
46534;BME280;32260;52.008;4.752;2023-12-04T01:54:17;101191.03;;;3.70;70.06
46534;BME280;32260;52.008;4.752;2023-12-04T01:56:43;101192.72;;;3.67;70.32
46534;BME280;32260;52.008;4.752;2023-12-04T01:59:10;101189.19;;;3.66;70.28
46534;BME280;32260;52.008;4.752;2023-12-04T02:01:36;101185.69;;;3.63;70.44
46534;BME280;32260;52.008;4.752;2023-12-04T02:04:03;101167.34;;;3.64;69.88
46534;BME280;32260;52.008;4.752;2023-12-04T02:06:30;101175.22;;;3.63;70.34
46534;BME280;32260;52.008;4.752;2023-12-04T02:08:56;101169.81;;;3.53;70.18
46534;BME280;32260;52.008;4.752;2023-12-04T02:11:23;101178.63;;;3.59;69.92
46534;BME280;32260;52.008;4.752;2023-12-04T02:13:50;101163.78;;;3.59;70.37
46534;BME280;32260;52.008;4.752;2023-12-04T02:16:17;101160.34;;;3.62;70.31
46534;BME280;32260;52.008;4.752;2023-12-04T02:18:44;101159.50;;;3.64;69.94
46534;BME280;32260;52.008;4.752;2023-12-04T02:21:11;101162.06;;;3.61;69.88
46534;BME280;32260;52.008;4.752;2023-12-04T02:23:37;101159.44;;;3.60;70.18
46534;BME280;32260;52.008;4.752;2023-12-04T02:26:09;101159.47;;;3.63;69.91
46534;BME280;32260;52.008;4.752;2023-12-04T02:28:37;101155.09;;;3.63;70.06
46534;BME280;32260;52.008;4.752;2023-12-04T02:31:05;101152.47;;;3.62;69.66
46534;BME280;32260;52.008;4.752;2023-12-04T02:33:33;101143.72;;;3.60;69.60
46534;BME280;32260;52.008;4.752;2023-12-04T02:36:02;101138.53;;;3.63;69.75
46534;BME280;32260;52.008;4.752;2023-12-04T02:38:30;101137.59;;;3.61;69.47
46534;BME280;32260;52.008;4.752;2023-12-04T02:40:56;101140.31;;;3.67;69.55
46534;BME280;32260;52.008;4.752;2023-12-04T02:43:23;101135.91;;;3.63;69.75
46534;BME280;32260;52.008;4.752;2023-12-04T02:45:49;101130.66;;;3.64;69.67
46534;BME280;32260;52.008;4.752;2023-12-04T02:48:15;101129.78;;;3.64;69.73
46534;BME280;32260;52.008;4.752;2023-12-04T02:50:41;101129.75;;;3.61;69.82
46534;BME280;32260;52.008;4.752;2023-12-04T02:53:07;101129.78;;;3.64;69.69
46534;BME280;32260;52.008;4.752;2023-12-04T02:55:33;101123.66;;;3.62;69.40
46534;BME280;32260;52.008;4.752;2023-12-04T02:58:00;101115.72;;;3.59;69.61
46534;BME280;32260;52.008;4.752;2023-12-04T03:00:26;101122.81;;;3.63;69.16
46534;BME280;32260;52.008;4.752;2023-12-04T03:02:52;101114.03;;;3.61;68.96
46534;BME280;32260;52.008;4.752;2023-12-04T03:05:19;101103.53;;;3.61;69.50
46534;BME280;32260;52.008;4.752;2023-12-04T03:07:45;101103.47;;;3.54;68.90
46534;BME280;32260;52.008;4.752;2023-12-04T03:10:12;101099.16;;;3.58;68.94
46534;BME280;32260;52.008;4.752;2023-12-04T03:12:38;101085.97;;;3.50;68.85
46534;BME280;32260;52.008;4.752;2023-12-04T03:15:04;101091.28;;;3.56;68.77
46534;BME280;32260;52.008;4.752;2023-12-04T03:17:31;101080.75;;;3.53;69.10
46534;BME280;32260;52.008;4.752;2023-12-04T03:19:57;101080.75;;;3.53;68.58
46534;BME280;32260;52.008;4.752;2023-12-04T03:22:23;101075.47;;;3.50;68.48
46534;BME280;32260;52.008;4.752;2023-12-04T03:24:49;101072.03;;;3.54;68.67
46534;BME280;32260;52.008;4.752;2023-12-04T03:27:16;101065.00;;;3.52;68.74
46534;BME280;32260;52.008;4.752;2023-12-04T03:29:42;101063.19;;;3.46;68.89
46534;BME280;32260;52.008;4.752;2023-12-04T03:32:08;101058.88;;;3.50;68.85
46534;BME280;32260;52.008;4.752;2023-12-04T03:34:34;101058.84;;;3.47;68.55
46534;BME280;32260;52.008;4.752;2023-12-04T03:37:00;101051.84;;;3.46;68.25
46534;BME280;32260;52.008;4.752;2023-12-04T03:39:26;101047.47;;;3.46;68.36
46534;BME280;32260;52.008;4.752;2023-12-04T03:41:53;101045.75;;;3.47;68.72
46534;BME280;32260;52.008;4.752;2023-12-04T03:44:19;101047.53;;;3.51;69.01
46534;BME280;32260;52.008;4.752;2023-12-04T03:46:45;101037.81;;;3.44;68.41
46534;BME280;32260;52.008;4.752;2023-12-04T03:49:11;101034.34;;;3.43;68.69
46534;BME280;32260;52.008;4.752;2023-12-04T03:51:37;101028.19;;;3.41;68.38
46534;BME280;32260;52.008;4.752;2023-12-04T03:54:03;101032.56;;;3.40;68.80
46534;BME280;32260;52.008;4.752;2023-12-04T03:56:30;101022.88;;;3.35;68.13
46534;BME280;32260;52.008;4.752;2023-12-04T03:58:56;101020.22;;;3.30;68.90
46534;BME280;32260;52.008;4.752;2023-12-04T04:01:22;101017.69;;;3.38;68.50
46534;BME280;32260;52.008;4.752;2023-12-04T04:03:48;101017.69;;;3.38;68.77
46534;BME280;32260;52.008;4.752;2023-12-04T04:06:14;101015.03;;;3.35;68.56
46534;BME280;32260;52.008;4.752;2023-12-04T04:08:40;101010.34;;;3.09;69.18
46534;BME280;32260;52.008;4.752;2023-12-04T04:11:07;101014.56;;;2.99;70.16
46534;BME280;32260;52.008;4.752;2023-12-04T04:13:33;101006.69;;;2.98;70.14
46534;BME280;32260;52.008;4.752;2023-12-04T04:15:59;101011.03;;;2.96;70.43
46534;BME280;32260;52.008;4.752;2023-12-04T04:18:25;101006.66;;;2.95;69.88
46534;BME280;32260;52.008;4.752;2023-12-04T04:20:51;101000.56;;;2.96;70.07
46534;BME280;32260;52.008;4.752;2023-12-04T04:23:17;101006.66;;;2.95;69.70
46534;BME280;32260;52.008;4.752;2023-12-04T04:25:44;101007.50;;;2.95;69.90
46534;BME280;32260;52.008;4.752;2023-12-04T04:28:10;100992.72;;;2.99;70.22
46534;BME280;32260;52.008;4.752;2023-12-04T04:30:36;100983.13;;;2.98;69.73
46534;BME280;32260;52.008;4.752;2023-12-04T04:33:02;100981.38;;;2.97;69.51
46534;BME280;32260;52.008;4.752;2023-12-04T04:35:30;100985.72;;;2.95;70.21
46534;BME280;32260;52.008;4.752;2023-12-04T04:37:57;100987.47;;;2.96;69.80
46534;BME280;32260;52.008;4.752;2023-12-04T04:40:23;100986.56;;;2.95;69.93
46534;BME280;32260;52.008;4.752;2023-12-04T04:42:49;100982.22;;;2.94;69.51
46534;BME280;32260;52.008;4.752;2023-12-04T04:45:15;100979.66;;;2.99;69.91
46534;BME280;32260;52.008;4.752;2023-12-04T04:47:41;100978.84;;;3.03;70.37
46534;BME280;32260;52.008;4.752;2023-12-04T04:50:08;100984.09;;;3.03;70.08
46534;BME280;32260;52.008;4.752;2023-12-04T04:52:34;100987.56;;;3.02;69.56
46534;BME280;32260;52.008;4.752;2023-12-04T04:55:00;100983.13;;;2.98;69.42
46534;BME280;32260;52.008;4.752;2023-12-04T04:57:26;100969.19;;;3.00;69.22
46534;BME280;32260;52.008;4.752;2023-12-04T04:59:52;100974.03;;;3.37;68.10
46534;BME280;32260;52.008;4.752;2023-12-04T05:02:19;100970.63;;;3.44;68.02
46534;BME280;32260;52.008;4.752;2023-12-04T05:04:45;100960.13;;;3.44;67.67
46534;BME280;32260;52.008;4.752;2023-12-04T05:07:11;100959.16;;;3.34;67.41
46534;BME280;32260;52.008;4.752;2023-12-04T05:09:37;100961.84;;;3.39;67.15
46534;BME280;32260;52.008;4.752;2023-12-04T05:12:03;100951.38;;;3.44;67.41
46534;BME280;32260;52.008;4.752;2023-12-04T05:14:30;100933.88;;;3.39;67.42
46534;BME280;32260;52.008;4.752;2023-12-04T05:16:56;100933.94;;;3.44;67.28
46534;BME280;32260;52.008;4.752;2023-12-04T05:19:22;100933.88;;;3.39;67.54
46534;BME280;32260;52.008;4.752;2023-12-04T05:21:48;100936.47;;;3.36;67.46
46534;BME280;32260;52.008;4.752;2023-12-04T05:24:14;100925.19;;;3.40;67.21
46534;BME280;32260;52.008;4.752;2023-12-04T05:26:41;100926.91;;;3.40;67.33
46534;BME280;32260;52.008;4.752;2023-12-04T05:29:07;100929.56;;;3.43;67.37
46534;BME280;32260;52.008;4.752;2023-12-04T05:31:33;100924.38;;;3.49;67.44
46534;BME280;32260;52.008;4.752;2023-12-04T05:33:59;100920.91;;;3.50;67.32
46534;BME280;32260;52.008;4.752;2023-12-04T05:36:25;100914.81;;;3.53;66.97
46534;BME280;32260;52.008;4.752;2023-12-04T05:38:51;100919.22;;;3.54;67.44
46534;BME280;32260;52.008;4.752;2023-12-04T05:41:19;100907.88;;;3.56;67.65
46534;BME280;32260;52.008;4.752;2023-12-04T05:43:45;100906.13;;;3.55;67.02
46534;BME280;32260;52.008;4.752;2023-12-04T05:46:12;100909.66;;;3.61;67.45
46534;BME280;32260;52.008;4.752;2023-12-04T05:48:39;100904.38;;;3.58;67.27
46534;BME280;32260;52.008;4.752;2023-12-04T05:51:05;100902.66;;;3.60;67.28
46534;BME280;32260;52.008;4.752;2023-12-04T05:53:31;100909.66;;;3.64;67.30
46534;BME280;32260;52.008;4.752;2023-12-04T05:55:57;100900.94;;;3.62;67.08
46534;BME280;32260;52.008;4.752;2023-12-04T05:58:23;100899.09;;;3.53;67.05
46534;BME280;32260;52.008;4.752;2023-12-04T06:00:50;100898.31;;;3.60;67.44
46534;BME280;32260;52.008;4.752;2023-12-04T06:03:16;100910.56;;;3.66;67.12
46534;BME280;32260;52.008;4.752;2023-12-04T06:05:42;100914.09;;;3.69;67.39
46534;BME280;32260;52.008;4.752;2023-12-04T06:08:08;100918.50;;;3.72;66.96
46534;BME280;32260;52.008;4.752;2023-12-04T06:10:34;100913.25;;;3.73;67.11
46534;BME280;32260;52.008;4.752;2023-12-04T06:13:01;100913.28;;;3.75;67.09
46534;BME280;32260;52.008;4.752;2023-12-04T06:15:27;100908.06;;;3.81;67.16
46534;BME280;32260;52.008;4.752;2023-12-04T06:17:53;100901.06;;;3.79;67.00
46534;BME280;32260;52.008;4.752;2023-12-04T06:20:19;100897.59;;;3.81;66.66
46534;BME280;32260;52.008;4.752;2023-12-04T06:22:46;100893.25;;;3.82;66.79
46534;BME280;32260;52.008;4.752;2023-12-04T06:25:12;100890.63;;;3.80;66.97
46534;BME280;32260;52.008;4.752;2023-12-04T06:27:39;100891.47;;;3.78;66.96
46534;BME280;32260;52.008;4.752;2023-12-04T06:30:06;100889.72;;;3.78;66.77
46534;BME280;32260;52.008;4.752;2023-12-04T06:32:33;100889.72;;;3.77;67.05
46534;BME280;32260;52.008;4.752;2023-12-04T06:34:59;100884.47;;;3.77;67.01
46534;BME280;32260;52.008;4.752;2023-12-04T06:37:25;100879.25;;;3.81;67.27
46534;BME280;32260;52.008;4.752;2023-12-04T06:39:53;100867.91;;;3.81;67.39
46534;BME280;32260;52.008;4.752;2023-12-04T06:42:20;100868.75;;;3.75;67.00
46534;BME280;32260;52.008;4.752;2023-12-04T06:44:46;100866.16;;;3.81;66.95
46534;BME280;32260;52.008;4.752;2023-12-04T06:47:13;100853.94;;;3.83;67.31
46534;BME280;32260;52.008;4.752;2023-12-04T06:49:43;100856.56;;;3.82;67.42
46534;BME280;32260;52.008;4.752;2023-12-04T06:52:09;100846.09;;;3.85;66.71
46534;BME280;32260;52.008;4.752;2023-12-04T06:54:35;100847.78;;;3.81;66.81
46534;BME280;32260;52.008;4.752;2023-12-04T06:57:01;100846.06;;;3.82;66.92
46534;BME280;32260;52.008;4.752;2023-12-04T06:59:30;100854.84;;;3.85;67.00
46534;BME280;32260;52.008;4.752;2023-12-04T07:01:56;100860.94;;;3.87;67.37
46534;BME280;32260;52.008;4.752;2023-12-04T07:04:22;100854.81;;;3.82;66.46
46534;BME280;32260;52.008;4.752;2023-12-04T07:06:49;100851.38;;;3.89;67.26
46534;BME280;32260;52.008;4.752;2023-12-04T07:09:15;100849.59;;;3.87;66.45
46534;BME280;32260;52.008;4.752;2023-12-04T07:11:43;100849.59;;;3.87;66.31
46534;BME280;32260;52.008;4.752;2023-12-04T07:14:10;100838.25;;;3.89;66.93
46534;BME280;32260;52.008;4.752;2023-12-04T07:16:40;100843.53;;;3.93;66.74
46534;BME280;32260;52.008;4.752;2023-12-04T07:19:07;100854.03;;;3.93;66.86
46534;BME280;32260;52.008;4.752;2023-12-04T07:21:33;100843.56;;;3.96;66.15
46534;BME280;32260;52.008;4.752;2023-12-04T07:23:59;100829.53;;;3.91;66.56
46534;BME280;32260;52.008;4.752;2023-12-04T07:26:28;100829.50;;;3.84;65.88
46534;BME280;32260;52.008;4.752;2023-12-04T07:28:54;100827.81;;;3.96;66.14
46534;BME280;32260;52.008;4.752;2023-12-04T07:31:20;100823.44;;;3.93;66.39
46534;BME280;32260;52.008;4.752;2023-12-04T07:33:46;100818.22;;;3.98;66.13
46534;BME280;32260;52.008;4.752;2023-12-04T07:36:12;100820.84;;;3.99;66.21
46534;BME280;32260;52.008;4.752;2023-12-04T07:38:39;100821.69;;;3.94;65.96
46534;BME280;32260;52.008;4.752;2023-12-04T07:41:05;100810.38;;;4.01;65.61
46534;BME280;32260;52.008;4.752;2023-12-04T07:43:31;100825.19;;;3.94;65.31
46534;BME280;32260;52.008;4.752;2023-12-04T07:45:57;100812.94;;;3.95;65.52
46534;BME280;32260;52.008;4.752;2023-12-04T07:48:23;100805.94;;;3.89;65.81
46534;BME280;32260;52.008;4.752;2023-12-04T07:50:50;100813.00;;;3.96;66.10
46534;BME280;32260;52.008;4.752;2023-12-04T07:53:16;100808.56;;;3.94;65.82
46534;BME280;32260;52.008;4.752;2023-12-04T07:55:42;100806.84;;;3.96;65.21
46534;BME280;32260;52.008;4.752;2023-12-04T07:58:09;100810.38;;;3.98;65.36
46534;BME280;32260;52.008;4.752;2023-12-04T08:00:35;100806.88;;;4.02;65.19
46534;BME280;32260;52.008;4.752;2023-12-04T08:03:02;100813.91;;;4.06;65.54
46534;BME280;32260;52.008;4.752;2023-12-04T08:05:28;100802.53;;;4.07;65.31
46534;BME280;32260;52.008;4.752;2023-12-04T08:07:55;100795.56;;;4.09;65.62
46534;BME280;32260;52.008;4.752;2023-12-04T08:10:21;100792.97;;;4.09;65.71
46534;BME280;32260;52.008;4.752;2023-12-04T08:12:49;100825.28;;;4.08;65.66
46534;BME280;32260;52.008;4.752;2023-12-04T08:15:15;100813.03;;;4.05;65.10
46534;BME280;32260;52.008;4.752;2023-12-04T08:17:41;100814.78;;;4.07;65.00
46534;BME280;32260;52.008;4.752;2023-12-04T08:20:07;100819.19;;;4.08;64.42
46534;BME280;32260;52.008;4.752;2023-12-04T08:22:39;100814.84;;;4.11;64.57
46534;BME280;32260;52.008;4.752;2023-12-04T08:25:07;100807.81;;;4.15;64.56
46534;BME280;32260;52.008;4.752;2023-12-04T08:27:34;100806.09;;;4.15;64.58
46534;BME280;32260;52.008;4.752;2023-12-04T08:30:00;100806.97;;;4.17;64.53
46534;BME280;32260;52.008;4.752;2023-12-04T08:32:26;100805.25;;;4.19;64.39
46534;BME280;32260;52.008;4.752;2023-12-04T08:34:53;100793.84;;;4.16;64.16
46534;BME280;32260;52.008;4.752;2023-12-04T08:37:20;100793.00;;;4.17;63.73
46534;BME280;32260;52.008;4.752;2023-12-04T08:39:46;100787.78;;;4.25;64.10
46534;BME280;32260;52.008;4.752;2023-12-04T08:42:12;100787.78;;;4.25;63.71
46534;BME280;32260;52.008;4.752;2023-12-04T08:44:39;100780.78;;;4.20;63.59
46534;BME280;32260;52.008;4.752;2023-12-04T08:47:06;100784.31;;;4.32;63.31
46534;BME280;32260;52.008;4.752;2023-12-04T08:49:32;100779.97;;;4.34;63.21
46534;BME280;32260;52.008;4.752;2023-12-04T08:52:00;100779.94;;;4.28;62.78
46534;BME280;32260;52.008;4.752;2023-12-04T08:54:26;100769.44;;;4.32;62.99
46534;BME280;32260;52.008;4.752;2023-12-04T08:56:52;100762.47;;;4.36;63.10
46534;BME280;32260;52.008;4.752;2023-12-04T08:59:18;100759.84;;;4.36;62.90
46534;BME280;32260;52.008;4.752;2023-12-04T09:01:44;100756.38;;;4.37;63.34
46534;BME280;32260;52.008;4.752;2023-12-04T09:04:10;100755.53;;;4.41;63.76
46534;BME280;32260;52.008;4.752;2023-12-04T09:06:37;100759.84;;;4.34;62.62
46534;BME280;32260;52.008;4.752;2023-12-04T09:09:03;100747.63;;;4.38;63.00
46534;BME280;32260;52.008;4.752;2023-12-04T09:11:29;100757.22;;;4.36;62.84
46534;BME280;32260;52.008;4.752;2023-12-04T09:13:55;100760.72;;;4.29;62.05
46534;BME280;32260;52.008;4.752;2023-12-04T09:16:21;100751.13;;;4.34;61.66
46534;BME280;32260;52.008;4.752;2023-12-04T09:18:47;100755.47;;;4.32;62.07
46534;BME280;32260;52.008;4.752;2023-12-04T09:21:14;100756.38;;;4.37;62.08
46534;BME280;32260;52.008;4.752;2023-12-04T09:23:40;100756.41;;;4.40;61.77
46534;BME280;32260;52.008;4.752;2023-12-04T09:26:06;100754.66;;;4.45;61.61
46534;BME280;32260;52.008;4.752;2023-12-04T09:28:32;100752.03;;;4.48;61.72
46534;BME280;32260;52.008;4.752;2023-12-04T09:30:58;100755.56;;;4.49;60.98
46534;BME280;32260;52.008;4.752;2023-12-04T09:33:24;100754.66;;;4.48;60.99
46534;BME280;32260;52.008;4.752;2023-12-04T09:35:50;100752.94;;;4.50;61.50
46534;BME280;32260;52.008;4.752;2023-12-04T09:38:17;100754.72;;;4.56;61.68
46534;BME280;32260;52.008;4.752;2023-12-04T09:40:43;100752.97;;;4.66;62.02
46534;BME280;32260;52.008;4.752;2023-12-04T09:43:09;100752.97;;;4.66;61.69
46534;BME280;32260;52.008;4.752;2023-12-04T09:45:36;100750.28;;;4.53;61.42
46534;BME280;32260;52.008;4.752;2023-12-04T09:48:04;100752.94;;;4.60;61.62
46534;BME280;32260;52.008;4.752;2023-12-04T09:50:31;100745.09;;;4.63;61.22
46534;BME280;32260;52.008;4.752;2023-12-04T09:52:59;100741.59;;;4.67;61.33
46534;BME280;32260;52.008;4.752;2023-12-04T09:55:25;100739.84;;;4.70;61.04
46534;BME280;32260;52.008;4.752;2023-12-04T09:57:51;100728.47;;;4.64;60.85
46534;BME280;32260;52.008;4.752;2023-12-04T10:00:18;100728.50;;;4.70;61.13
46534;BME280;32260;52.008;4.752;2023-12-04T10:02:46;100730.22;;;4.69;60.97
46534;BME280;32260;52.008;4.752;2023-12-04T10:05:13;100721.50;;;4.69;60.64
46534;BME280;32260;52.008;4.752;2023-12-04T10:07:39;100717.13;;;4.74;60.63
46534;BME280;32260;52.008;4.752;2023-12-04T10:10:06;100712.75;;;4.79;60.52
46534;BME280;32260;52.008;4.752;2023-12-04T10:12:35;100714.53;;;4.77;60.55
46534;BME280;32260;52.008;4.752;2023-12-04T10:15:16;100703.16;;;4.92;60.82
46534;BME280;32260;52.008;4.752;2023-12-04T10:17:43;100699.63;;;4.85;60.39
46534;BME280;32260;52.008;4.752;2023-12-04T10:23:02;100690.03;;;4.94;60.04
46534;BME280;32260;52.008;4.752;2023-12-04T10:25:30;100685.63;;;4.94;60.17
46534;BME280;32260;52.008;4.752;2023-12-04T10:28:13;100668.16;;;5.10;60.69
46534;BME280;32260;52.008;4.752;2023-12-04T10:30:41;100669.91;;;5.05;60.39
46534;BME280;32260;52.008;4.752;2023-12-04T10:33:08;100669.03;;;5.00;59.95
46534;BME280;32260;52.008;4.752;2023-12-04T10:35:36;100668.16;;;5.10;60.05
46534;BME280;32260;52.008;4.752;2023-12-04T10:38:02;100662.00;;;5.08;58.96
46534;BME280;32260;52.008;4.752;2023-12-04T10:40:31;100655.00;;;5.13;59.84
46534;BME280;32260;52.008;4.752;2023-12-04T10:43:16;100656.75;;;5.24;59.65
46534;BME280;32260;52.008;4.752;2023-12-04T10:45:43;100643.63;;;5.13;59.71
46534;BME280;32260;52.008;4.752;2023-12-04T10:48:12;100640.16;;;5.06;59.34
46534;BME280;32260;52.008;4.752;2023-12-04T10:50:40;100644.50;;;5.13;59.18
46534;BME280;32260;52.008;4.752;2023-12-04T10:53:07;100637.50;;;5.11;59.12
46534;BME280;32260;52.008;4.752;2023-12-04T10:55:35;100632.25;;;5.01;59.00
46534;BME280;32260;52.008;4.752;2023-12-04T10:58:05;100624.38;;;5.05;59.01
46534;BME280;32260;52.008;4.752;2023-12-04T11:00:34;100620.88;;;5.06;59.13
46534;BME280;32260;52.008;4.752;2023-12-04T11:03:05;100611.22;;;5.15;59.20
46534;BME280;32260;52.008;4.752;2023-12-04T11:05:37;100612.13;;;5.07;59.07
46534;BME280;32260;52.008;4.752;2023-12-04T11:08:03;100610.38;;;5.15;59.45
46534;BME280;32260;52.008;4.752;2023-12-04T11:10:32;100609.47;;;5.13;59.02
46534;BME280;32260;52.008;4.752;2023-12-04T11:13:06;100611.25;;;5.09;58.73
46534;BME280;32260;52.008;4.752;2023-12-04T11:15:39;100603.34;;;5.28;59.15
46534;BME280;32260;52.008;4.752;2023-12-04T11:18:07;100598.09;;;5.26;58.75
46534;BME280;32260;52.008;4.752;2023-12-04T11:20:40;100592.81;;;5.32;59.25
46534;BME280;32260;52.008;4.752;2023-12-04T11:23:08;100600.69;;;5.32;58.66
46534;BME280;32260;52.008;4.752;2023-12-04T11:25:35;100607.69;;;5.38;58.96
46534;BME280;32260;52.008;4.752;2023-12-04T11:28:02;100600.63;;;5.49;59.22
46534;BME280;32260;52.008;4.752;2023-12-04T11:30:30;100598.06;;;5.37;58.60
46534;BME280;32260;52.008;4.752;2023-12-04T11:32:56;100602.41;;;5.44;58.91
46534;BME280;32260;52.008;4.752;2023-12-04T11:35:25;100601.53;;;5.51;59.44
46534;BME280;32260;52.008;4.752;2023-12-04T11:37:53;100605.88;;;5.56;59.44
46534;BME280;32260;52.008;4.752;2023-12-04T11:40:19;100600.63;;;5.56;59.67
46534;BME280;32260;52.008;4.752;2023-12-04T11:42:45;100598.00;;;5.54;59.36
46534;BME280;32260;52.008;4.752;2023-12-04T11:45:21;100602.38;;;5.60;59.25
46534;BME280;32260;52.008;4.752;2023-12-04T11:47:50;100587.50;;;5.51;59.31
46534;BME280;32260;52.008;4.752;2023-12-04T11:50:18;100590.09;;;5.56;59.54
46534;BME280;32260;52.008;4.752;2023-12-04T11:52:45;100584.84;;;5.56;59.71
46534;BME280;32260;52.008;4.752;2023-12-04T11:55:12;100583.09;;;5.58;60.01
46534;BME280;32260;52.008;4.752;2023-12-04T11:57:41;100583.13;;;5.51;59.49
46534;BME280;32260;52.008;4.752;2023-12-04T12:03:00;100561.22;;;5.54;59.66
46534;BME280;32260;52.008;4.752;2023-12-04T12:05:27;100564.72;;;5.51;59.89
46534;BME280;32260;52.008;4.752;2023-12-04T12:07:54;100565.59;;;5.54;60.36
46534;BME280;32260;52.008;4.752;2023-12-04T12:10:21;100562.09;;;5.55;60.64
46534;BME280;32260;52.008;4.752;2023-12-04T12:12:47;100557.72;;;5.52;61.05
46534;BME280;32260;52.008;4.752;2023-12-04T12:15:14;100545.44;;;5.49;61.00
46534;BME280;32260;52.008;4.752;2023-12-04T12:17:41;100537.56;;;5.49;61.21
46534;BME280;32260;52.008;4.752;2023-12-04T12:20:09;100531.47;;;5.44;61.74
46534;BME280;32260;52.008;4.752;2023-12-04T12:22:37;100527.06;;;5.53;61.83
46534;BME280;32260;52.008;4.752;2023-12-04T12:25:07;100514.81;;;5.45;62.06
46534;BME280;32260;52.008;4.752;2023-12-04T12:27:34;100506.97;;;5.39;62.34
46534;BME280;32260;52.008;4.752;2023-12-04T12:30:00;100504.34;;;5.42;62.38
46534;BME280;32260;52.008;4.752;2023-12-04T12:32:27;100505.22;;;5.41;62.47
46534;BME280;32260;52.008;4.752;2023-12-04T12:34:53;100504.38;;;5.31;62.67
46534;BME280;32260;52.008;4.752;2023-12-04T12:37:21;100501.75;;;5.27;62.67
46534;BME280;32260;52.008;4.752;2023-12-04T12:39:47;100495.63;;;5.31;62.99
46534;BME280;32260;52.008;4.752;2023-12-04T12:42:25;100500.03;;;5.27;62.66
46534;BME280;32260;52.008;4.752;2023-12-04T12:44:53;100492.13;;;5.27;62.88
46534;BME280;32260;52.008;4.752;2023-12-04T12:47:20;100489.53;;;5.23;63.08
46534;BME280;32260;52.008;4.752;2023-12-04T12:49:46;100488.66;;;5.21;63.13
46534;BME280;32260;52.008;4.752;2023-12-04T12:52:12;100485.16;;;5.25;63.28
46534;BME280;32260;52.008;4.752;2023-12-04T12:54:39;100486.00;;;5.28;63.09
46534;BME280;32260;52.008;4.752;2023-12-04T12:57:06;100483.41;;;5.22;63.10
46534;BME280;32260;52.008;4.752;2023-12-04T12:59:33;100475.53;;;5.22;63.09
46534;BME280;32260;52.008;4.752;2023-12-04T13:02:00;100472.88;;;5.24;63.14
46534;BME280;32260;52.008;4.752;2023-12-04T13:04:34;100465.91;;;5.16;63.24